sensor_id;sensor_type;location;lat;lon;timestamp;P1;durP1;ratioP1;P2;durP2;ratioP2
49109;SDS011;34921;52.320;16.142;2023-07-29T00:00:15;4.58;;;3.00;;
49109;SDS011;34921;52.320;16.142;2023-07-29T00:03:03;5.45;;;3.25;;
49109;SDS011;34921;52.320;16.142;2023-07-29T00:05:31;6.12;;;2.87;;
49109;SDS011;34921;52.320;16.142;2023-07-29T00:07:59;5.33;;;3.20;;
49109;SDS011;34921;52.320;16.142;2023-07-29T00:10:27;5.22;;;3.25;;
49109;SDS011;34921;52.320;16.142;2023-07-29T00:12:56;7.65;;;3.80;;
49109;SDS011;34921;52.320;16.142;2023-07-29T00:15:24;5.30;;;3.60;;
49109;SDS011;34921;52.320;16.142;2023-07-29T00:17:51;5.33;;;3.40;;
49109;SDS011;34921;52.320;16.142;2023-07-29T00:20:19;4.97;;;3.02;;
49109;SDS011;34921;52.320;16.142;2023-07-29T00:22:47;7.00;;;3.47;;
49109;SDS011;34921;52.320;16.142;2023-07-29T00:25:17;5.60;;;3.58;;
49109;SDS011;34921;52.320;16.142;2023-07-29T00:27:45;5.05;;;3.15;;
49109;SDS011;34921;52.320;16.142;2023-07-29T00:30:13;6.08;;;3.33;;
49109;SDS011;34921;52.320;16.142;2023-07-29T00:32:41;7.20;;;3.37;;
49109;SDS011;34921;52.320;16.142;2023-07-29T00:35:09;6.00;;;3.52;;
49109;SDS011;34921;52.320;16.142;2023-07-29T00:37:37;3.52;;;2.65;;
49109;SDS011;34921;52.320;16.142;2023-07-29T00:40:10;3.98;;;2.95;;
49109;SDS011;34921;52.320;16.142;2023-07-29T00:42:43;11.15;;;3.47;;
49109;SDS011;34921;52.320;16.142;2023-07-29T00:45:11;7.70;;;3.47;;
49109;SDS011;34921;52.320;16.142;2023-07-29T00:47:39;5.95;;;3.70;;
49109;SDS011;34921;52.320;16.142;2023-07-29T00:50:07;8.80;;;3.85;;
49109;SDS011;34921;52.320;16.142;2023-07-29T00:52:40;8.23;;;3.97;;
49109;SDS011;34921;52.320;16.142;2023-07-29T00:55:08;7.80;;;3.75;;
49109;SDS011;34921;52.320;16.142;2023-07-29T00:57:36;6.03;;;3.40;;
49109;SDS011;34921;52.320;16.142;2023-07-29T01:00:04;7.58;;;3.90;;
49109;SDS011;34921;52.320;16.142;2023-07-29T01:02:32;7.65;;;3.58;;
49109;SDS011;34921;52.320;16.142;2023-07-29T01:05:01;6.12;;;3.50;;
49109;SDS011;34921;52.320;16.142;2023-07-29T01:12:36;8.40;;;4.70;;
49109;SDS011;34921;52.320;16.142;2023-07-29T01:15:17;11.00;;;4.78;;
49109;SDS011;34921;52.320;16.142;2023-07-29T01:17:53;9.85;;;5.22;;
49109;SDS011;34921;52.320;16.142;2023-07-29T01:20:23;7.67;;;4.87;;
49109;SDS011;34921;52.320;16.142;2023-07-29T01:22:53;7.85;;;4.40;;
49109;SDS011;34921;52.320;16.142;2023-07-29T01:25:21;11.83;;;5.10;;
49109;SDS011;34921;52.320;16.142;2023-07-29T01:27:50;16.12;;;5.35;;
49109;SDS011;34921;52.320;16.142;2023-07-29T01:30:25;10.53;;;4.60;;
49109;SDS011;34921;52.320;16.142;2023-07-29T01:38:17;5.35;;;3.25;;
49109;SDS011;34921;52.320;16.142;2023-07-29T01:40:47;5.03;;;3.20;;
49109;SDS011;34921;52.320;16.142;2023-07-29T01:43:16;6.15;;;3.60;;
49109;SDS011;34921;52.320;16.142;2023-07-29T01:45:46;6.92;;;4.10;;
49109;SDS011;34921;52.320;16.142;2023-07-29T01:48:14;10.00;;;4.03;;
49109;SDS011;34921;52.320;16.142;2023-07-29T01:50:41;6.62;;;3.60;;
49109;SDS011;34921;52.320;16.142;2023-07-29T01:53:09;10.72;;;4.20;;
49109;SDS011;34921;52.320;16.142;2023-07-29T01:55:38;6.70;;;3.77;;
49109;SDS011;34921;52.320;16.142;2023-07-29T01:58:06;9.95;;;3.92;;
49109;SDS011;34921;52.320;16.142;2023-07-29T02:00:34;5.92;;;3.90;;
49109;SDS011;34921;52.320;16.142;2023-07-29T02:03:02;8.08;;;4.08;;
49109;SDS011;34921;52.320;16.142;2023-07-29T02:05:30;5.37;;;3.65;;
49109;SDS011;34921;52.320;16.142;2023-07-29T02:07:58;4.80;;;3.33;;
49109;SDS011;34921;52.320;16.142;2023-07-29T02:10:26;5.05;;;3.37;;
49109;SDS011;34921;52.320;16.142;2023-07-29T02:12:54;4.62;;;3.50;;
49109;SDS011;34921;52.320;16.142;2023-07-29T02:15:22;6.72;;;3.47;;
49109;SDS011;34921;52.320;16.142;2023-07-29T02:17:50;6.28;;;4.40;;
49109;SDS011;34921;52.320;16.142;2023-07-29T02:20:19;7.25;;;4.60;;
49109;SDS011;34921;52.320;16.142;2023-07-29T02:22:47;6.70;;;4.03;;
49109;SDS011;34921;52.320;16.142;2023-07-29T02:25:16;5.62;;;4.15;;
49109;SDS011;34921;52.320;16.142;2023-07-29T02:27:44;6.62;;;4.35;;
49109;SDS011;34921;52.320;16.142;2023-07-29T02:30:11;7.20;;;5.25;;
49109;SDS011;34921;52.320;16.142;2023-07-29T02:32:39;6.30;;;4.30;;
49109;SDS011;34921;52.320;16.142;2023-07-29T02:35:07;5.60;;;4.08;;
49109;SDS011;34921;52.320;16.142;2023-07-29T02:37:35;5.75;;;4.20;;
49109;SDS011;34921;52.320;16.142;2023-07-29T02:40:03;6.10;;;4.60;;
49109;SDS011;34921;52.320;16.142;2023-07-29T02:42:32;6.55;;;4.40;;
49109;SDS011;34921;52.320;16.142;2023-07-29T02:45:00;6.20;;;4.75;;
49109;SDS011;34921;52.320;16.142;2023-07-29T02:47:28;5.85;;;4.30;;
49109;SDS011;34921;52.320;16.142;2023-07-29T02:49:57;8.90;;;5.15;;
49109;SDS011;34921;52.320;16.142;2023-07-29T02:52:24;5.87;;;4.35;;
49109;SDS011;34921;52.320;16.142;2023-07-29T02:54:52;6.33;;;4.85;;
49109;SDS011;34921;52.320;16.142;2023-07-29T02:57:20;6.25;;;4.22;;
49109;SDS011;34921;52.320;16.142;2023-07-29T02:59:48;7.55;;;5.00;;
49109;SDS011;34921;52.320;16.142;2023-07-29T03:02:16;7.05;;;4.30;;
49109;SDS011;34921;52.320;16.142;2023-07-29T03:04:44;6.62;;;4.45;;
49109;SDS011;34921;52.320;16.142;2023-07-29T03:07:12;7.25;;;4.55;;
49109;SDS011;34921;52.320;16.142;2023-07-29T03:09:41;10.32;;;5.17;;
49109;SDS011;34921;52.320;16.142;2023-07-29T03:12:09;8.58;;;4.50;;
49109;SDS011;34921;52.320;16.142;2023-07-29T03:14:37;8.65;;;4.55;;
49109;SDS011;34921;52.320;16.142;2023-07-29T03:17:05;5.85;;;4.08;;
49109;SDS011;34921;52.320;16.142;2023-07-29T03:19:33;7.78;;;4.10;;
49109;SDS011;34921;52.320;16.142;2023-07-29T03:22:01;6.03;;;4.20;;
49109;SDS011;34921;52.320;16.142;2023-07-29T03:24:29;6.47;;;3.92;;
49109;SDS011;34921;52.320;16.142;2023-07-29T03:26:57;5.17;;;3.58;;
49109;SDS011;34921;52.320;16.142;2023-07-29T03:29:25;6.67;;;4.03;;
49109;SDS011;34921;52.320;16.142;2023-07-29T03:31:52;6.90;;;3.92;;
49109;SDS011;34921;52.320;16.142;2023-07-29T03:34:20;6.37;;;4.20;;
49109;SDS011;34921;52.320;16.142;2023-07-29T03:36:48;7.62;;;4.35;;
49109;SDS011;34921;52.320;16.142;2023-07-29T03:39:18;8.25;;;4.95;;
49109;SDS011;34921;52.320;16.142;2023-07-29T03:41:46;8.33;;;5.15;;
49109;SDS011;34921;52.320;16.142;2023-07-29T03:44:14;6.25;;;4.83;;
49109;SDS011;34921;52.320;16.142;2023-07-29T03:46:42;6.83;;;4.72;;
49109;SDS011;34921;52.320;16.142;2023-07-29T03:49:10;8.05;;;5.20;;
49109;SDS011;34921;52.320;16.142;2023-07-29T03:51:38;6.15;;;4.37;;
49109;SDS011;34921;52.320;16.142;2023-07-29T03:54:06;8.55;;;5.05;;
49109;SDS011;34921;52.320;16.142;2023-07-29T03:56:34;6.47;;;4.50;;
49109;SDS011;34921;52.320;16.142;2023-07-29T03:59:03;5.70;;;4.70;;
49109;SDS011;34921;52.320;16.142;2023-07-29T04:01:32;5.17;;;4.43;;
49109;SDS011;34921;52.320;16.142;2023-07-29T04:04:00;6.10;;;4.60;;
49109;SDS011;34921;52.320;16.142;2023-07-29T04:06:28;9.93;;;5.05;;
49109;SDS011;34921;52.320;16.142;2023-07-29T04:08:56;7.00;;;4.80;;
49109;SDS011;34921;52.320;16.142;2023-07-29T04:11:24;7.75;;;4.47;;
49109;SDS011;34921;52.320;16.142;2023-07-29T04:13:53;6.00;;;4.55;;
49109;SDS011;34921;52.320;16.142;2023-07-29T04:16:21;8.15;;;4.62;;
49109;SDS011;34921;52.320;16.142;2023-07-29T04:18:49;7.75;;;4.55;;
49109;SDS011;34921;52.320;16.142;2023-07-29T04:21:16;4.87;;;4.37;;
49109;SDS011;34921;52.320;16.142;2023-07-29T04:23:44;6.60;;;4.50;;
49109;SDS011;34921;52.320;16.142;2023-07-29T04:26:12;7.78;;;4.15;;
49109;SDS011;34921;52.320;16.142;2023-07-29T04:28:41;4.58;;;3.87;;
49109;SDS011;34921;52.320;16.142;2023-07-29T04:31:10;6.05;;;3.98;;
49109;SDS011;34921;52.320;16.142;2023-07-29T04:33:38;6.70;;;4.47;;
49109;SDS011;34921;52.320;16.142;2023-07-29T04:36:06;5.42;;;4.40;;
49109;SDS011;34921;52.320;16.142;2023-07-29T04:38:36;9.28;;;4.40;;
49109;SDS011;34921;52.320;16.142;2023-07-29T04:41:04;7.00;;;4.67;;
49109;SDS011;34921;52.320;16.142;2023-07-29T04:43:34;5.13;;;4.50;;
49109;SDS011;34921;52.320;16.142;2023-07-29T04:46:02;6.42;;;4.20;;
49109;SDS011;34921;52.320;16.142;2023-07-29T04:48:30;5.40;;;4.28;;
49109;SDS011;34921;52.320;16.142;2023-07-29T04:50:58;5.60;;;4.70;;
49109;SDS011;34921;52.320;16.142;2023-07-29T04:53:26;6.10;;;4.83;;
49109;SDS011;34921;52.320;16.142;2023-07-29T04:55:54;5.65;;;5.12;;
49109;SDS011;34921;52.320;16.142;2023-07-29T04:58:22;6.83;;;4.58;;
49109;SDS011;34921;52.320;16.142;2023-07-29T05:00:50;5.70;;;5.10;;
49109;SDS011;34921;52.320;16.142;2023-07-29T05:03:18;8.00;;;4.95;;
49109;SDS011;34921;52.320;16.142;2023-07-29T05:05:46;9.00;;;4.60;;
49109;SDS011;34921;52.320;16.142;2023-07-29T05:08:14;5.60;;;4.75;;
49109;SDS011;34921;52.320;16.142;2023-07-29T05:10:41;6.28;;;5.55;;
49109;SDS011;34921;52.320;16.142;2023-07-29T05:13:09;6.08;;;5.20;;
49109;SDS011;34921;52.320;16.142;2023-07-29T05:15:37;8.05;;;6.05;;
49109;SDS011;34921;52.320;16.142;2023-07-29T05:18:05;6.50;;;5.37;;
49109;SDS011;34921;52.320;16.142;2023-07-29T05:20:33;7.25;;;5.70;;
49109;SDS011;34921;52.320;16.142;2023-07-29T05:23:01;8.83;;;6.12;;
49109;SDS011;34921;52.320;16.142;2023-07-29T05:25:29;10.28;;;6.25;;
49109;SDS011;34921;52.320;16.142;2023-07-29T05:27:57;7.25;;;5.95;;
49109;SDS011;34921;52.320;16.142;2023-07-29T05:30:25;8.00;;;6.17;;
49109;SDS011;34921;52.320;16.142;2023-07-29T05:32:54;7.08;;;5.72;;
49109;SDS011;34921;52.320;16.142;2023-07-29T05:35:22;7.10;;;6.05;;
49109;SDS011;34921;52.320;16.142;2023-07-29T05:37:50;7.30;;;5.87;;
49109;SDS011;34921;52.320;16.142;2023-07-29T05:40:18;8.30;;;6.35;;
49109;SDS011;34921;52.320;16.142;2023-07-29T05:42:46;9.98;;;7.10;;
49109;SDS011;34921;52.320;16.142;2023-07-29T05:45:15;8.78;;;6.97;;
49109;SDS011;34921;52.320;16.142;2023-07-29T05:47:43;8.60;;;7.03;;
49109;SDS011;34921;52.320;16.142;2023-07-29T05:50:11;8.63;;;7.17;;
49109;SDS011;34921;52.320;16.142;2023-07-29T05:52:39;10.23;;;7.25;;
49109;SDS011;34921;52.320;16.142;2023-07-29T05:55:07;7.80;;;6.95;;
49109;SDS011;34921;52.320;16.142;2023-07-29T05:57:35;9.08;;;7.83;;
49109;SDS011;34921;52.320;16.142;2023-07-29T06:00:03;8.20;;;7.15;;
49109;SDS011;34921;52.320;16.142;2023-07-29T06:02:32;8.40;;;7.25;;
49109;SDS011;34921;52.320;16.142;2023-07-29T06:05:00;10.40;;;8.43;;
49109;SDS011;34921;52.320;16.142;2023-07-29T06:07:30;8.40;;;7.50;;
49109;SDS011;34921;52.320;16.142;2023-07-29T06:09:59;9.35;;;7.28;;
49109;SDS011;34921;52.320;16.142;2023-07-29T06:12:28;9.55;;;7.42;;
49109;SDS011;34921;52.320;16.142;2023-07-29T06:14:56;9.70;;;7.53;;
49109;SDS011;34921;52.320;16.142;2023-07-29T06:17:24;9.15;;;7.22;;
49109;SDS011;34921;52.320;16.142;2023-07-29T06:19:52;9.85;;;8.85;;
49109;SDS011;34921;52.320;16.142;2023-07-29T06:22:20;9.20;;;8.23;;
49109;SDS011;34921;52.320;16.142;2023-07-29T06:24:48;9.45;;;8.05;;
49109;SDS011;34921;52.320;16.142;2023-07-29T06:27:16;10.43;;;8.33;;
49109;SDS011;34921;52.320;16.142;2023-07-29T06:29:43;8.58;;;7.67;;
49109;SDS011;34921;52.320;16.142;2023-07-29T06:32:11;10.38;;;9.18;;
49109;SDS011;34921;52.320;16.142;2023-07-29T06:34:39;10.93;;;9.83;;
49109;SDS011;34921;52.320;16.142;2023-07-29T06:37:08;9.65;;;8.65;;
49109;SDS011;34921;52.320;16.142;2023-07-29T06:39:35;9.55;;;8.53;;
49109;SDS011;34921;52.320;16.142;2023-07-29T06:42:03;11.75;;;9.20;;
49109;SDS011;34921;52.320;16.142;2023-07-29T06:44:32;10.28;;;9.15;;
49109;SDS011;34921;52.320;16.142;2023-07-29T06:47:00;8.18;;;7.08;;
49109;SDS011;34921;52.320;16.142;2023-07-29T06:49:28;9.73;;;8.53;;
49109;SDS011;34921;52.320;16.142;2023-07-29T06:51:56;9.00;;;7.92;;
49109;SDS011;34921;52.320;16.142;2023-07-29T06:54:24;8.60;;;7.65;;
49109;SDS011;34921;52.320;16.142;2023-07-29T06:56:53;9.83;;;8.23;;
49109;SDS011;34921;52.320;16.142;2023-07-29T07:02:02;7.15;;;6.30;;
49109;SDS011;34921;52.320;16.142;2023-07-29T07:07:02;7.35;;;6.00;;
49109;SDS011;34921;52.320;16.142;2023-07-29T07:17:08;7.05;;;5.00;;
49109;SDS011;34921;52.320;16.142;2023-07-29T07:19:36;7.20;;;4.58;;
49109;SDS011;34921;52.320;16.142;2023-07-29T07:22:04;5.70;;;4.97;;
49109;SDS011;34921;52.320;16.142;2023-07-29T07:24:32;6.70;;;4.50;;
49109;SDS011;34921;52.320;16.142;2023-07-29T07:27:00;6.62;;;4.53;;
49109;SDS011;34921;52.320;16.142;2023-07-29T07:29:30;6.72;;;4.30;;
49109;SDS011;34921;52.320;16.142;2023-07-29T07:31:58;5.10;;;4.20;;
49109;SDS011;34921;52.320;16.142;2023-07-29T07:34:26;7.50;;;4.78;;
49109;SDS011;34921;52.320;16.142;2023-07-29T07:36:54;6.47;;;4.10;;
49109;SDS011;34921;52.320;16.142;2023-07-29T07:41:56;6.47;;;3.90;;
49109;SDS011;34921;52.320;16.142;2023-07-29T07:44:23;4.67;;;3.60;;
49109;SDS011;34921;52.320;16.142;2023-07-29T07:49:24;4.05;;;3.65;;
49109;SDS011;34921;52.320;16.142;2023-07-29T07:54:30;4.45;;;3.05;;
49109;SDS011;34921;52.320;16.142;2023-07-29T07:59:30;4.70;;;2.80;;
49109;SDS011;34921;52.320;16.142;2023-07-29T08:01:57;5.05;;;2.90;;
49109;SDS011;34921;52.320;16.142;2023-07-29T08:04:30;3.33;;;2.60;;
49109;SDS011;34921;52.320;16.142;2023-07-29T08:06:59;3.85;;;2.67;;
49109;SDS011;34921;52.320;16.142;2023-07-29T08:17:13;4.25;;;2.95;;
49109;SDS011;34921;52.320;16.142;2023-07-29T08:19:44;4.30;;;2.80;;
49109;SDS011;34921;52.320;16.142;2023-07-29T08:22:12;2.87;;;2.40;;
49109;SDS011;34921;52.320;16.142;2023-07-29T08:24:43;4.00;;;3.10;;
49109;SDS011;34921;52.320;16.142;2023-07-29T08:27:15;3.67;;;2.70;;
49109;SDS011;34921;52.320;16.142;2023-07-29T08:29:45;3.92;;;2.50;;
49109;SDS011;34921;52.320;16.142;2023-07-29T08:32:15;2.80;;;2.40;;
49109;SDS011;34921;52.320;16.142;2023-07-29T08:34:47;4.95;;;2.50;;
49109;SDS011;34921;52.320;16.142;2023-07-29T08:37:19;3.52;;;2.52;;
49109;SDS011;34921;52.320;16.142;2023-07-29T08:39:50;3.15;;;2.58;;
49109;SDS011;34921;52.320;16.142;2023-07-29T08:42:20;2.92;;;2.30;;
49109;SDS011;34921;52.320;16.142;2023-07-29T08:44:52;4.08;;;2.33;;
49109;SDS011;34921;52.320;16.142;2023-07-29T08:47:24;3.70;;;2.43;;
49109;SDS011;34921;52.320;16.142;2023-07-29T08:57:32;4.63;;;2.80;;
49109;SDS011;34921;52.320;16.142;2023-07-29T09:02:36;3.50;;;2.90;;
49109;SDS011;34921;52.320;16.142;2023-07-29T09:05:08;3.80;;;2.90;;
49109;SDS011;34921;52.320;16.142;2023-07-29T09:07:40;3.55;;;2.92;;
49109;SDS011;34921;52.320;16.142;2023-07-29T09:12:44;3.97;;;2.70;;
49109;SDS011;34921;52.320;16.142;2023-07-29T09:17:48;3.37;;;3.00;;
49109;SDS011;34921;52.320;16.142;2023-07-29T09:20:23;3.55;;;2.60;;
49109;SDS011;34921;52.320;16.142;2023-07-29T09:22:55;5.25;;;3.50;;
49109;SDS011;34921;52.320;16.142;2023-07-29T09:25:28;4.28;;;3.50;;
49109;SDS011;34921;52.320;16.142;2023-07-29T09:27:59;4.05;;;3.15;;
49109;SDS011;34921;52.320;16.142;2023-07-29T09:30:32;5.67;;;3.22;;
49109;SDS011;34921;52.320;16.142;2023-07-29T09:33:03;6.43;;;3.23;;
49109;SDS011;34921;52.320;16.142;2023-07-29T09:35:33;3.80;;;3.17;;
49109;SDS011;34921;52.320;16.142;2023-07-29T09:38:07;4.90;;;3.15;;
49109;SDS011;34921;52.320;16.142;2023-07-29T09:40:38;4.12;;;3.05;;
49109;SDS011;34921;52.320;16.142;2023-07-29T09:43:08;3.98;;;2.90;;
49109;SDS011;34921;52.320;16.142;2023-07-29T09:45:37;3.85;;;2.90;;
49109;SDS011;34921;52.320;16.142;2023-07-29T09:48:05;4.20;;;3.40;;
49109;SDS011;34921;52.320;16.142;2023-07-29T09:50:37;3.47;;;2.90;;
49109;SDS011;34921;52.320;16.142;2023-07-29T09:53:05;3.70;;;2.98;;
49109;SDS011;34921;52.320;16.142;2023-07-29T09:55:34;4.20;;;2.60;;
49109;SDS011;34921;52.320;16.142;2023-07-29T09:58:02;3.40;;;2.65;;
49109;SDS011;34921;52.320;16.142;2023-07-29T10:00:31;4.25;;;2.80;;
49109;SDS011;34921;52.320;16.142;2023-07-29T10:02:59;4.10;;;2.55;;
49109;SDS011;34921;52.320;16.142;2023-07-29T10:05:28;5.58;;;2.33;;
49109;SDS011;34921;52.320;16.142;2023-07-29T10:07:57;3.10;;;2.50;;
49109;SDS011;34921;52.320;16.142;2023-07-29T10:10:25;4.80;;;2.40;;
49109;SDS011;34921;52.320;16.142;2023-07-29T10:12:54;3.52;;;2.90;;
49109;SDS011;34921;52.320;16.142;2023-07-29T10:15:22;4.92;;;2.85;;
49109;SDS011;34921;52.320;16.142;2023-07-29T10:17:50;4.05;;;2.98;;
49109;SDS011;34921;52.320;16.142;2023-07-29T10:20:19;3.65;;;2.40;;
49109;SDS011;34921;52.320;16.142;2023-07-29T10:22:47;3.10;;;2.37;;
49109;SDS011;34921;52.320;16.142;2023-07-29T10:25:16;4.53;;;3.00;;
49109;SDS011;34921;52.320;16.142;2023-07-29T10:28:05;4.83;;;2.80;;
49109;SDS011;34921;52.320;16.142;2023-07-29T10:30:34;3.62;;;2.52;;
49109;SDS011;34921;52.320;16.142;2023-07-29T10:35:39;3.02;;;2.58;;
49109;SDS011;34921;52.320;16.142;2023-07-29T10:38:08;4.33;;;2.40;;
49109;SDS011;34921;52.320;16.142;2023-07-29T10:40:43;3.12;;;2.15;;
49109;SDS011;34921;52.320;16.142;2023-07-29T10:43:18;3.15;;;1.87;;
49109;SDS011;34921;52.320;16.142;2023-07-29T10:46:17;7.35;;;2.25;;
49109;SDS011;34921;52.320;16.142;2023-07-29T10:48:52;3.27;;;2.15;;
49109;SDS011;34921;52.320;16.142;2023-07-29T10:53:54;4.10;;;1.55;;
49109;SDS011;34921;52.320;16.142;2023-07-29T10:56:27;2.80;;;1.57;;
49109;SDS011;34921;52.320;16.142;2023-07-29T10:58:57;3.22;;;1.60;;
49109;SDS011;34921;52.320;16.142;2023-07-29T11:01:27;2.37;;;1.62;;
49109;SDS011;34921;52.320;16.142;2023-07-29T11:09:56;2.52;;;1.50;;
49109;SDS011;34921;52.320;16.142;2023-07-29T11:17:33;4.58;;;1.55;;
49109;SDS011;34921;52.320;16.142;2023-07-29T11:20:04;2.40;;;1.30;;
49109;SDS011;34921;52.320;16.142;2023-07-29T11:22:35;2.83;;;1.40;;
49109;SDS011;34921;52.320;16.142;2023-07-29T11:25:04;2.92;;;1.40;;
49109;SDS011;34921;52.320;16.142;2023-07-29T11:27:33;2.17;;;1.50;;
49109;SDS011;34921;52.320;16.142;2023-07-29T11:30:01;3.08;;;1.50;;
49109;SDS011;34921;52.320;16.142;2023-07-29T11:32:33;2.10;;;1.30;;
49109;SDS011;34921;52.320;16.142;2023-07-29T11:37:35;2.15;;;1.30;;
49109;SDS011;34921;52.320;16.142;2023-07-29T11:40:05;2.70;;;1.67;;
49109;SDS011;34921;52.320;16.142;2023-07-29T11:42:37;2.95;;;1.40;;
49109;SDS011;34921;52.320;16.142;2023-07-29T11:45:06;2.87;;;2.00;;
49109;SDS011;34921;52.320;16.142;2023-07-29T11:47:35;3.00;;;1.80;;
49109;SDS011;34921;52.320;16.142;2023-07-29T11:50:05;1.80;;;1.10;;
49109;SDS011;34921;52.320;16.142;2023-07-29T11:55:03;2.40;;;1.40;;
49109;SDS011;34921;52.320;16.142;2023-07-29T11:57:33;2.02;;;1.20;;
49109;SDS011;34921;52.320;16.142;2023-07-29T12:00:04;2.77;;;1.20;;
49109;SDS011;34921;52.320;16.142;2023-07-29T12:02:35;4.15;;;1.10;;
49109;SDS011;34921;52.320;16.142;2023-07-29T12:05:05;1.90;;;1.10;;
49109;SDS011;34921;52.320;16.142;2023-07-29T12:07:33;1.70;;;1.00;;
49109;SDS011;34921;52.320;16.142;2023-07-29T12:10:02;2.47;;;1.47;;
49109;SDS011;34921;52.320;16.142;2023-07-29T12:12:31;3.07;;;1.30;;
49109;SDS011;34921;52.320;16.142;2023-07-29T12:14:59;2.08;;;1.10;;
49109;SDS011;34921;52.320;16.142;2023-07-29T12:17:28;1.45;;;0.90;;
49109;SDS011;34921;52.320;16.142;2023-07-29T12:19:56;3.05;;;1.20;;
49109;SDS011;34921;52.320;16.142;2023-07-29T12:22:24;1.80;;;1.05;;
49109;SDS011;34921;52.320;16.142;2023-07-29T12:24:52;3.05;;;1.12;;
49109;SDS011;34921;52.320;16.142;2023-07-29T12:27:21;1.77;;;1.10;;
49109;SDS011;34921;52.320;16.142;2023-07-29T12:29:51;1.98;;;1.10;;
49109;SDS011;34921;52.320;16.142;2023-07-29T12:43:39;2.53;;;1.10;;
49109;SDS011;34921;52.320;16.142;2023-07-29T12:48:46;5.33;;;1.10;;
49109;SDS011;34921;52.320;16.142;2023-07-29T12:51:17;1.77;;;1.00;;
49109;SDS011;34921;52.320;16.142;2023-07-29T12:58:45;1.67;;;0.90;;
49109;SDS011;34921;52.320;16.142;2023-07-29T13:06:28;2.27;;;1.10;;
49109;SDS011;34921;52.320;16.142;2023-07-29T13:08:59;1.77;;;0.95;;
49109;SDS011;34921;52.320;16.142;2023-07-29T13:14:00;1.60;;;0.90;;
49109;SDS011;34921;52.320;16.142;2023-07-29T13:16:32;1.62;;;0.98;;
49109;SDS011;34921;52.320;16.142;2023-07-29T13:19:02;2.52;;;1.10;;
49109;SDS011;34921;52.320;16.142;2023-07-29T13:21:30;2.22;;;1.10;;
49109;SDS011;34921;52.320;16.142;2023-07-29T13:39:27;2.00;;;1.22;;
49109;SDS011;34921;52.320;16.142;2023-07-29T13:49:37;2.22;;;1.00;;
49109;SDS011;34921;52.320;16.142;2023-07-29T13:52:06;1.60;;;1.00;;
49109;SDS011;34921;52.320;16.142;2023-07-29T13:54:38;1.82;;;1.10;;
49109;SDS011;34921;52.320;16.142;2023-07-29T13:57:11;3.08;;;1.35;;
49109;SDS011;34921;52.320;16.142;2023-07-29T13:59:39;2.00;;;1.10;;
49109;SDS011;34921;52.320;16.142;2023-07-29T14:02:07;2.45;;;1.02;;
49109;SDS011;34921;52.320;16.142;2023-07-29T14:09:39;1.75;;;1.10;;
49109;SDS011;34921;52.320;16.142;2023-07-29T14:19:52;1.87;;;1.00;;
49109;SDS011;34921;52.320;16.142;2023-07-29T14:24:49;3.60;;;1.17;;
49109;SDS011;34921;52.320;16.142;2023-07-29T14:27:18;1.67;;;1.00;;
49109;SDS011;34921;52.320;16.142;2023-07-29T14:34:53;2.98;;;1.12;;
49109;SDS011;34921;52.320;16.142;2023-07-29T14:39:57;3.25;;;1.40;;
49109;SDS011;34921;52.320;16.142;2023-07-29T14:50:03;2.12;;;1.20;;
49109;SDS011;34921;52.320;16.142;2023-07-29T14:57:37;3.03;;;1.20;;
49109;SDS011;34921;52.320;16.142;2023-07-29T15:02:40;1.92;;;1.30;;
49109;SDS011;34921;52.320;16.142;2023-07-29T15:10:23;2.05;;;1.30;;
49109;SDS011;34921;52.320;16.142;2023-07-29T15:12:51;4.25;;;1.30;;
49109;SDS011;34921;52.320;16.142;2023-07-29T15:15:20;3.33;;;1.30;;
49109;SDS011;34921;52.320;16.142;2023-07-29T15:17:49;2.60;;;1.40;;
49109;SDS011;34921;52.320;16.142;2023-07-29T15:25:15;3.90;;;1.65;;
49109;SDS011;34921;52.320;16.142;2023-07-29T15:27:44;3.95;;;1.50;;
49109;SDS011;34921;52.320;16.142;2023-07-29T15:30:12;2.35;;;1.35;;
49109;SDS011;34921;52.320;16.142;2023-07-29T15:32:40;3.87;;;1.47;;
49109;SDS011;34921;52.320;16.142;2023-07-29T15:37:46;2.85;;;1.50;;
49109;SDS011;34921;52.320;16.142;2023-07-29T15:40:14;7.17;;;1.75;;
49109;SDS011;34921;52.320;16.142;2023-07-29T15:42:43;4.40;;;1.75;;
49109;SDS011;34921;52.320;16.142;2023-07-29T15:45:11;4.22;;;1.45;;
49109;SDS011;34921;52.320;16.142;2023-07-29T15:47:40;3.10;;;1.17;;
49109;SDS011;34921;52.320;16.142;2023-07-29T15:50:09;3.52;;;1.32;;
49109;SDS011;34921;52.320;16.142;2023-07-29T15:52:38;2.90;;;1.45;;
49109;SDS011;34921;52.320;16.142;2023-07-29T15:55:10;5.00;;;1.50;;
49109;SDS011;34921;52.320;16.142;2023-07-29T15:57:38;2.80;;;1.30;;
49109;SDS011;34921;52.320;16.142;2023-07-29T16:05:14;3.83;;;1.30;;
49109;SDS011;34921;52.320;16.142;2023-07-29T16:07:42;2.90;;;1.22;;
49109;SDS011;34921;52.320;16.142;2023-07-29T16:10:12;4.20;;;1.10;;
49109;SDS011;34921;52.320;16.142;2023-07-29T16:26:27;2.98;;;1.27;;
49109;SDS011;34921;52.320;16.142;2023-07-29T16:28:59;3.20;;;1.25;;
49109;SDS011;34921;52.320;16.142;2023-07-29T16:31:31;3.50;;;1.50;;
49109;SDS011;34921;52.320;16.142;2023-07-29T16:34:01;4.53;;;1.60;;
49109;SDS011;34921;52.320;16.142;2023-07-29T16:36:33;3.77;;;1.42;;
49109;SDS011;34921;52.320;16.142;2023-07-29T16:44:10;2.30;;;1.20;;
49109;SDS011;34921;52.320;16.142;2023-07-29T16:46:40;2.95;;;1.40;;
49109;SDS011;34921;52.320;16.142;2023-07-29T16:49:13;4.92;;;2.00;;
49109;SDS011;34921;52.320;16.142;2023-07-29T16:51:45;6.92;;;1.98;;
49109;SDS011;34921;52.320;16.142;2023-07-29T16:59:23;7.20;;;3.72;;
49109;SDS011;34921;52.320;16.142;2023-07-29T17:04:21;6.90;;;3.35;;
49109;SDS011;34921;52.320;16.142;2023-07-29T17:06:49;6.27;;;2.70;;
49109;SDS011;34921;52.320;16.142;2023-07-29T17:09:18;7.10;;;2.55;;
49109;SDS011;34921;52.320;16.142;2023-07-29T17:11:52;7.60;;;2.97;;
49109;SDS011;34921;52.320;16.142;2023-07-29T17:14:21;6.35;;;3.67;;
49109;SDS011;34921;52.320;16.142;2023-07-29T17:19:26;4.40;;;2.10;;
49109;SDS011;34921;52.320;16.142;2023-07-29T17:21:56;6.00;;;2.25;;
49109;SDS011;34921;52.320;16.142;2023-07-29T17:24:24;4.45;;;2.20;;
49109;SDS011;34921;52.320;16.142;2023-07-29T17:26:55;3.50;;;1.80;;
49109;SDS011;34921;52.320;16.142;2023-07-29T17:34:25;4.58;;;2.12;;
49109;SDS011;34921;52.320;16.142;2023-07-29T17:36:58;6.03;;;2.30;;
49109;SDS011;34921;52.320;16.142;2023-07-29T17:39:28;5.50;;;2.02;;
49109;SDS011;34921;52.320;16.142;2023-07-29T17:41:59;7.33;;;2.20;;
49109;SDS011;34921;52.320;16.142;2023-07-29T17:44:29;6.20;;;2.27;;
49109;SDS011;34921;52.320;16.142;2023-07-29T17:47:04;7.73;;;2.20;;
49109;SDS011;34921;52.320;16.142;2023-07-29T18:03:08;4.20;;;2.20;;
49109;SDS011;34921;52.320;16.142;2023-07-29T18:13:21;5.65;;;2.55;;
49109;SDS011;34921;52.320;16.142;2023-07-29T18:18:30;4.33;;;2.17;;
49109;SDS011;34921;52.320;16.142;2023-07-29T18:23:34;3.95;;;1.90;;
49109;SDS011;34921;52.320;16.142;2023-07-29T18:34:35;5.80;;;3.00;;
49109;SDS011;34921;52.320;16.142;2023-07-29T18:37:07;5.47;;;2.50;;
49109;SDS011;34921;52.320;16.142;2023-07-29T18:39:38;6.15;;;2.42;;
49109;SDS011;34921;52.320;16.142;2023-07-29T18:42:08;4.67;;;2.60;;
49109;SDS011;34921;52.320;16.142;2023-07-29T18:47:11;5.10;;;2.00;;
49109;SDS011;34921;52.320;16.142;2023-07-29T18:49:41;6.42;;;2.65;;
49109;SDS011;34921;52.320;16.142;2023-07-29T18:52:10;5.37;;;2.75;;
49109;SDS011;34921;52.320;16.142;2023-07-29T18:54:43;4.55;;;2.42;;
49109;SDS011;34921;52.320;16.142;2023-07-29T18:57:15;4.83;;;2.15;;
49109;SDS011;34921;52.320;16.142;2023-07-29T18:59:45;6.85;;;2.42;;